Time;durP1;ratioP1;P1;durP2;ratioP2;P2;SDS_P1;SDS_P2;PMS_P1;PMS_P2;Temp;Humidity;BMP_temperature;BMP_pressure;BME280_temperature;BME280_humidity;BME280_pressure;Samples;Min_cycle;Max_cycle;Signal;HPM_P1;HPM_P2
2022/07/16 00:01:45;;;;;;;3.10;0.68;;;;;;;28.71;42.08;100569.88;5047671;28;20063;-70
2022/07/16 00:03:45;;;;;;;2.53;0.68;;;;;;;28.71;42.55;100559.16;5035565;28;20032;-70
2022/07/16 00:06:11;;;;;;;1.27;0.70;;;;;;;28.71;42.40;100565.34;5049754;28;20401;-70
2022/07/16 00:08:36;;;;;;;3.60;0.73;;;;;;;28.73;42.14;100576.59;5048367;28;20391;-70
2022/07/16 00:11:02;;;;;;;1.13;0.60;;;;;;;28.74;42.41;100577.41;5049466;28;20382;-70
2022/07/16 00:13:27;;;;;;;1.42;0.50;;;;;;;28.74;42.16;100575.53;5047729;28;20029;-69
2022/07/16 00:15:54;;;;;;;1.33;0.50;;;;;;;28.74;42.37;100572.84;5048832;28;20020;-70
2022/07/16 00:21:03;;;;;;;2.78;0.60;;;;;;;28.71;42.47;100576.06;5047482;28;20133;-70
2022/07/16 00:23:29;;;;;;;1.45;0.70;;;;;;;28.72;42.46;100566.94;5043262;28;20108;-70
2022/07/16 00:25:54;;;;;;;1.45;0.70;;;;;;;28.71;42.21;100568.00;5049312;28;20025;-70
2022/07/16 00:28:19;;;;;;;1.50;0.63;;;;;;;28.71;42.48;100562.66;5050414;28;20104;-71
2022/07/16 00:30:45;;;;;;;2.90;0.60;;;;;;;28.70;42.49;100566.41;5047791;28;20499;-71
2022/07/16 00:33:10;;;;;;;2.55;0.50;;;;;;;28.70;42.23;100566.41;5047471;28;20032;-70
2022/07/16 00:35:36;;;;;;;1.00;0.70;;;;;;;28.68;42.37;100567.72;5046719;28;20037;-70
2022/07/16 00:38:01;;;;;;;2.40;0.80;;;;;;;28.67;42.11;100569.59;5049058;28;20033;-71
2022/07/16 00:40:27;;;;;;;1.67;0.68;;;;;;;28.66;42.21;100572.53;5047010;28;20385;-70
2022/07/16 00:42:52;;;;;;;1.23;0.70;;;;;;;28.63;42.07;100568.50;5044954;28;20123;-71
2022/07/16 00:45:18;;;;;;;1.67;0.80;;;;;;;28.60;41.46;100563.66;5048565;28;20036;-70
2022/07/16 00:47:43;;;;;;;4.20;0.80;;;;;;;28.60;41.66;100562.88;5049737;28;20027;-69
2022/07/16 00:50:08;;;;;;;1.55;0.70;;;;;;;28.57;41.40;100564.19;5050106;28;20040;-70
2022/07/16 00:52:35;;;;;;;1.60;0.50;;;;;;;28.59;41.50;100571.97;5046446;28;20453;-70
2022/07/16 00:55:00;;;;;;;1.35;0.50;;;;;;;28.60;41.63;100570.91;5044879;28;20025;-70
2022/07/16 00:57:26;;;;;;;1.63;0.50;;;;;;;28.62;41.52;100579.50;5049068;28;20096;-70
2022/07/16 00:59:51;;;;;;;2.92;0.40;;;;;;;28.62;41.21;100561.53;5050010;28;20377;-70
2022/07/16 01:02:17;;;;;;;1.33;0.43;;;;;;;28.64;41.09;100559.41;5046112;28;20045;-70
2022/07/16 01:04:43;;;;;;;2.17;0.50;;;;;;;28.65;41.21;100569.06;5048161;28;20022;-70
2022/07/16 01:07:09;;;;;;;1.15;0.50;;;;;;;28.66;41.01;100577.91;5049002;28;20033;-69
2022/07/16 01:09:35;;;;;;;1.95;0.63;;;;;;;28.65;40.99;100582.47;5046016;28;20044;-70
2022/07/16 01:12:01;;;;;;;3.80;0.70;;;;;;;28.65;41.47;100585.13;5048636;28;20115;-69
2022/07/16 01:14:27;;;;;;;1.38;0.50;;;;;;;28.66;41.25;100586.75;5048662;28;20036;-70
2022/07/16 01:16:53;;;;;;;1.80;0.68;;;;;;;28.67;41.32;100585.69;5048023;28;20036;-70
2022/07/16 01:19:18;;;;;;;3.47;0.60;;;;;;;28.66;41.33;100576.03;5049288;28;20032;-70
2022/07/16 01:21:44;;;;;;;2.33;0.70;;;;;;;28.65;41.17;100574.41;5048322;28;20459;-70
2022/07/16 01:24:09;;;;;;;1.63;0.40;;;;;;;28.65;41.17;100571.75;5048134;28;20106;-69
2022/07/16 01:26:35;;;;;;;1.08;0.43;;;;;;;28.65;40.77;100573.63;5046914;28;20033;-72
2022/07/16 01:29:00;;;;;;;2.08;0.68;;;;;;;28.64;40.95;100570.13;5049425;28;20059;-70
2022/07/16 01:31:26;;;;;;;2.13;0.73;;;;;;;28.63;41.15;100567.72;5048115;28;20029;-70
2022/07/16 01:36:35;;;;;;;1.85;0.60;;;;;;;28.58;40.82;100557.75;5046983;28;20126;-69
2022/07/16 01:39:00;;;;;;;1.80;0.60;;;;;;;28.57;41.19;100564.19;5048283;28;20454;-70
2022/07/16 01:41:26;;;;;;;1.73;0.50;;;;;;;28.55;40.70;100571.69;5046672;28;20107;-69
2022/07/16 01:43:51;;;;;;;1.30;0.85;;;;;;;28.55;40.92;100569.00;5045436;28;20036;-70
2022/07/16 01:46:17;;;;;;;2.90;0.63;;;;;;;28.56;40.73;100577.84;5048061;28;20037;-69
2022/07/16 01:48:42;;;;;;;1.00;0.57;;;;;;;28.54;41.07;100575.44;5047845;28;20048;-70
2022/07/16 01:51:08;;;;;;;1.75;0.50;;;;;;;28.56;40.88;100567.94;5047682;28;20039;-70
2022/07/16 01:53:33;;;;;;;0.93;0.43;;;;;;;28.56;40.71;100548.38;5046509;28;20045;-70
2022/07/16 01:55:59;;;;;;;2.08;0.50;;;;;;;28.57;41.13;100547.31;5045253;28;20036;-69
2022/07/16 01:58:25;;;;;;;2.20;0.60;;;;;;;28.57;40.84;100548.13;5047267;28;20021;-69
2022/07/16 02:00:51;;;;;;;0.90;0.40;;;;;;;28.57;40.93;100542.75;5048478;28;20087;-70
2022/07/16 02:03:17;;;;;;;1.55;0.60;;;;;;;28.58;40.75;100541.69;5047247;28;20035;-72
2022/07/16 02:05:43;;;;;;;1.30;0.40;;;;;;;28.58;41.08;100535.50;5048223;28;20033;-71
2022/07/16 02:08:09;;;;;;;2.47;0.52;;;;;;;28.58;41.21;100535.50;5048732;28;20036;-70
2022/07/16 02:10:34;;;;;;;0.90;0.50;;;;;;;28.58;40.83;100540.88;5048365;28;20539;-69
2022/07/16 02:13:00;;;;;;;2.58;0.52;;;;;;;28.60;40.74;100552.94;5047277;28;20025;-70
2022/07/16 02:15:26;;;;;;;2.05;0.60;;;;;;;28.60;40.58;100552.94;5046741;28;20098;-70
2022/07/16 02:17:51;;;;;;;0.73;0.40;;;;;;;28.58;40.46;100536.31;5047458;28;20083;-70
2022/07/16 02:20:17;;;;;;;1.35;0.60;;;;;;;28.56;40.09;100527.75;5047556;28;20060;-70
2022/07/16 02:22:43;;;;;;;2.17;0.52;;;;;;;28.56;40.10;100540.34;5047132;28;20477;-70
2022/07/16 02:25:10;;;;;;;1.13;0.50;;;;;;;28.51;39.85;100537.63;5048012;28;20050;-69
2022/07/16 02:27:35;;;;;;;2.45;0.77;;;;;;;28.51;39.85;100541.13;5043209;28;20047;-70
2022/07/16 02:30:02;;;;;;;1.33;0.65;;;;;;;28.52;39.80;100542.72;5047156;28;20032;-70
2022/07/16 02:32:29;;;;;;;1.48;0.60;;;;;;;28.53;39.72;100538.97;5046812;28;20111;-70
2022/07/16 02:34:55;;;;;;;2.97;0.60;;;;;;;28.53;39.67;100536.31;5047755;28;20032;-70
2022/07/16 02:37:20;;;;;;;1.70;0.40;;;;;;;28.49;38.80;100535.22;5043963;28;20171;-70
2022/07/16 02:39:46;;;;;;;1.00;0.40;;;;;;;28.46;39.32;100535.72;5048136;28;20525;-70
2022/07/16 02:42:11;;;;;;;0.95;0.40;;;;;;;28.45;39.28;100534.13;5043834;28;20041;-71
2022/07/16 02:44:37;;;;;;;4.05;0.50;;;;;;;28.42;39.18;100526.59;5044640;28;20049;-70
2022/07/16 02:47:02;;;;;;;1.33;0.40;;;;;;;28.44;38.82;100534.38;5044895;28;20025;-70
2022/07/16 02:49:27;;;;;;;2.17;0.40;;;;;;;28.43;39.02;100541.59;5047389;28;20035;-69
2022/07/16 02:51:53;;;;;;;1.58;0.50;;;;;;;28.43;39.09;100538.94;5045518;28;20025;-69
2022/07/16 02:54:18;;;;;;;2.05;0.70;;;;;;;28.35;38.61;100539.44;5046028;28;20524;-69
2022/07/16 02:56:44;;;;;;;1.10;0.60;;;;;;;28.26;38.67;100535.63;5044243;28;20396;-70
2022/07/16 02:59:09;;;;;;;2.33;0.70;;;;;;;28.24;38.45;100537.78;5044410;28;20043;-69
2022/07/16 03:01:34;;;;;;;1.27;0.50;;;;;;;28.20;38.51;100534.78;5046891;28;20017;-69
2022/07/16 03:04:00;;;;;;;4.20;0.40;;;;;;;28.19;38.52;100535.03;5047416;28;20048;-70
2022/07/16 03:06:26;;;;;;;0.98;0.50;;;;;;;28.22;38.54;100542.59;5046151;28;20464;-69
2022/07/16 03:08:51;;;;;;;2.00;0.50;;;;;;;28.27;38.55;100534.56;5045360;28;20041;-70
2022/07/16 03:11:17;;;;;;;1.02;0.40;;;;;;;28.29;38.96;100535.13;5045814;28;20473;-70
2022/07/16 03:13:43;;;;;;;1.38;0.50;;;;;;;28.29;38.95;100530.56;5263267;22;20062;-72
2022/07/16 03:16:08;;;;;;;2.20;0.70;;;;;;;28.30;38.67;100542.09;5007735;28;20125;-72
2022/07/16 03:18:34;;;;;;;2.08;0.50;;;;;;;28.30;39.03;100536.75;5007769;28;20887;-71
2022/07/16 03:20:59;;;;;;;3.70;0.65;;;;;;;28.29;38.86;100535.13;5007972;28;20553;-72
2022/07/16 03:23:25;;;;;;;3.33;0.50;;;;;;;28.31;38.76;100538.34;5007961;28;20026;-72
2022/07/16 03:25:50;;;;;;;1.67;0.40;;;;;;;28.32;39.20;100537.28;5007891;28;20030;-72
2022/07/16 03:28:15;;;;;;;0.88;0.47;;;;;;;28.33;39.18;100544.25;5007782;28;20380;-72
2022/07/16 03:30:41;;;;;;;2.05;0.45;;;;;;;28.34;38.81;100537.84;5007851;28;20382;-72
2022/07/16 03:33:06;;;;;;;1.15;0.50;;;;;;;28.33;38.60;100536.22;5007597;28;20060;-72
2022/07/16 03:35:32;;;;;;;1.40;0.50;;;;;;;28.33;38.70;100531.66;5007844;28;20030;-72
2022/07/16 03:40:42;;;;;;;1.08;0.40;;;;;;;28.33;38.28;100536.22;5007797;28;20092;-71
2022/07/16 03:43:07;;;;;;;0.70;0.40;;;;;;;28.33;38.52;100537.03;5007863;28;20059;-72
2022/07/16 03:45:33;;;;;;;1.10;0.47;;;;;;;28.34;38.19;100533.28;5007503;28;20036;-72
2022/07/16 03:47:58;;;;;;;1.45;0.40;;;;;;;28.36;38.54;100535.66;5007813;28;20450;-72
2022/07/16 03:50:24;;;;;;;1.00;0.40;;;;;;;28.35;38.71;100537.56;5007650;28;20046;-72
2022/07/16 03:52:49;;;;;;;1.05;0.40;;;;;;;28.36;38.40;100541.03;5007674;28;20029;-71
2022/07/16 03:55:15;;;;;;;1.58;0.50;;;;;;;28.37;38.62;100542.63;5007496;28;20034;-72
2022/07/16 03:57:41;;;;;;;0.75;0.45;;;;;;;28.36;38.62;100535.66;5007707;28;20357;-72
2022/07/16 04:00:08;;;;;;;1.08;0.35;;;;;;;28.37;38.93;100537.28;5007310;28;20398;-72
2022/07/16 04:02:33;;;;;;;2.20;0.40;;;;;;;28.36;38.83;100541.84;5007552;28;20505;-72
2022/07/16 04:04:59;;;;;;;0.60;0.40;;;;;;;28.36;38.80;100541.03;5007956;28;20041;-72
2022/07/16 04:07:24;;;;;;;1.00;0.45;;;;;;;28.36;39.04;100543.72;5011070;28;20041;-72
2022/07/16 04:09:50;;;;;;;1.90;0.40;;;;;;;28.35;38.78;100539.44;5011074;28;20033;-71
2022/07/16 04:12:15;;;;;;;2.90;0.45;;;;;;;28.34;39.08;100527.91;5010977;28;20469;-71
2022/07/16 04:14:41;;;;;;;1.15;0.50;;;;;;;28.33;39.01;100531.66;5010605;28;20042;-71
2022/07/16 04:17:06;;;;;;;3.40;0.60;;;;;;;28.33;39.14;100526.31;5010981;28;20440;-71
2022/07/16 04:19:31;;;;;;;0.65;0.40;;;;;;;28.32;39.14;100523.88;5010905;28;20575;-71
2022/07/16 04:21:57;;;;;;;0.93;0.50;;;;;;;28.31;39.21;100525.75;5010990;28;20595;-72
2022/07/16 04:24:22;;;;;;;1.17;0.40;;;;;;;28.31;39.03;100522.28;5010703;28;20446;-71
2022/07/16 04:26:48;;;;;;;1.27;0.50;;;;;;;28.32;39.47;100526.56;5010413;28;20037;-72
2022/07/16 04:29:13;;;;;;;2.17;0.85;;;;;;;28.30;39.16;100526.81;5010389;28;20083;-72
2022/07/16 04:31:39;;;;;;;1.35;0.45;;;;;;;28.31;39.49;100527.63;5010335;22;20066;-72
2022/07/16 04:34:04;;;;;;;0.80;0.40;;;;;;;28.31;39.34;100523.09;4990295;28;20080;-71
2022/07/16 04:36:30;;;;;;;3.20;0.50;;;;;;;28.34;39.26;100521.75;4988833;28;20379;-71
2022/07/16 04:38:55;;;;;;;0.65;0.35;;;;;;;28.36;39.34;100522.28;4990235;28;20088;-72
2022/07/16 04:41:21;;;;;;;1.95;0.40;;;;;;;28.37;39.50;100526.56;4989958;28;20100;-72
2022/07/16 04:43:46;;;;;;;0.95;0.40;;;;;;;28.39;39.34;100524.44;4990602;28;20029;-72
2022/07/16 04:46:11;;;;;;;0.80;0.35;;;;;;;28.40;39.52;100529.53;4990670;28;20026;-72
2022/07/16 04:48:37;;;;;;;1.25;0.60;;;;;;;28.42;39.91;100538.13;4990263;28;20022;-71
2022/07/16 04:51:02;;;;;;;1.15;0.40;;;;;;;28.44;39.50;100542.41;4989715;28;20035;-71
2022/07/16 04:53:28;;;;;;;1.38;0.40;;;;;;;28.46;39.82;100538.41;4989504;28;20030;-72
2022/07/16 04:55:53;;;;;;;0.70;0.40;;;;;;;28.47;39.45;100534.66;4990270;28;20034;-71
2022/07/16 04:58:19;;;;;;;1.98;0.60;;;;;;;28.48;39.56;100538.16;4989729;28;20046;-71
2022/07/16 05:00:44;;;;;;;1.92;0.50;;;;;;;28.49;39.39;100534.41;4990100;28;20030;-71
2022/07/16 05:03:10;;;;;;;0.93;0.30;;;;;;;28.48;39.76;100524.75;4989449;28;20032;-72
2022/07/16 05:05:37;;;;;;;0.65;0.38;;;;;;;28.48;39.65;100522.06;4988632;28;20042;-72
2022/07/16 05:08:05;;;;;;;1.90;0.70;;;;;;;28.48;39.54;100530.09;4988740;28;20139;-72
2022/07/16 05:10:31;;;;;;;1.52;0.50;;;;;;;28.46;39.12;100533.03;4988513;28;20145;-72
2022/07/16 05:12:57;;;;;;;1.70;0.57;;;;;;;28.46;39.45;100530.38;4989898;28;20034;-72
2022/07/16 05:15:24;;;;;;;1.58;0.55;;;;;;;28.47;39.21;100531.97;4989236;28;20438;-72
2022/07/16 05:17:50;;;;;;;1.05;0.40;;;;;;;28.49;39.27;100532.53;4988370;28;20117;-72
2022/07/16 05:20:16;;;;;;;1.70;0.40;;;;;;;28.51;39.13;100532.25;4989297;28;20109;-72
2022/07/16 05:22:42;;;;;;;1.38;0.50;;;;;;;28.53;38.92;100527.44;4989525;28;20405;-72
2022/07/16 05:25:09;;;;;;;1.52;0.55;;;;;;;28.54;39.24;100537.91;4989253;28;21502;-71
2022/07/16 05:27:34;;;;;;;1.52;0.43;;;;;;;28.55;38.87;100539.53;4988292;28;20022;-72
2022/07/16 05:30:00;;;;;;;1.02;0.50;;;;;;;28.55;39.02;100549.44;4988812;28;20037;-72
2022/07/16 05:32:25;;;;;;;0.88;0.40;;;;;;;28.56;39.28;100540.34;4987829;28;20042;-72
2022/07/16 05:34:51;;;;;;;2.70;0.40;;;;;;;28.55;39.35;100550.25;4987583;28;20085;-72
2022/07/16 05:37:16;;;;;;;1.17;0.52;;;;;;;28.56;39.05;100546.50;4987564;28;20480;-72
2022/07/16 05:39:42;;;;;;;0.70;0.40;;;;;;;28.57;39.28;100544.63;4988947;28;20026;-72
2022/07/16 05:42:07;;;;;;;1.60;0.50;;;;;;;28.57;39.52;100548.13;4988766;28;20069;-72
2022/07/16 05:44:33;;;;;;;1.17;0.43;;;;;;;28.58;39.17;100551.59;4989743;28;20201;-72
2022/07/16 05:46:58;;;;;;;0.93;0.32;;;;;;;28.60;39.36;100549.47;4971388;28;20038;-72
2022/07/16 05:49:24;;;;;;;1.58;0.60;;;;;;;28.60;39.32;100547.59;4988660;28;20034;-72
2022/07/16 05:51:49;;;;;;;2.65;0.40;;;;;;;28.63;38.81;100541.72;4988625;28;20030;-71
2022/07/16 05:54:15;;;;;;;0.70;0.40;;;;;;;28.65;39.11;100544.13;4988435;28;20037;-72
2022/07/16 05:56:40;;;;;;;0.93;0.50;;;;;;;28.66;38.70;100541.19;4989006;28;20042;-72
2022/07/16 05:59:05;;;;;;;1.80;0.50;;;;;;;28.68;39.13;100543.59;4988345;28;20034;-73
2022/07/16 06:01:32;;;;;;;1.35;0.40;;;;;;;28.69;38.87;100548.69;4988041;28;20038;-72
2022/07/16 06:03:57;;;;;;;2.15;0.32;;;;;;;28.70;38.90;100536.09;4987382;28;20030;-70
2022/07/16 06:06:23;;;;;;;2.55;0.50;;;;;;;28.72;39.22;100537.47;4988023;28;20136;-71
2022/07/16 06:08:48;;;;;;;3.00;0.50;;;;;;;28.70;39.75;100541.47;4988015;28;20037;-72
2022/07/16 06:11:14;;;;;;;1.48;0.43;;;;;;;28.68;39.96;100536.38;4987448;28;20153;-71
2022/07/16 06:13:39;;;;;;;2.78;0.50;;;;;;;28.69;39.55;100540.66;4988550;28;20434;-72
2022/07/16 06:16:07;;;;;;;7.63;0.77;;;;;;;28.70;39.78;100542.28;4988109;28;20042;-72
2022/07/16 06:18:33;;;;;;;4.68;0.52;;;;;;;28.63;38.96;100541.72;4988236;28;20085;-72
2022/07/16 06:20:58;;;;;;;2.92;0.50;;;;;;;28.57;39.38;100545.44;4987093;28;20412;-72
2022/07/16 06:23:24;;;;;;;1.42;0.50;;;;;;;28.56;39.29;100541.13;4985713;28;20030;-72
2022/07/16 06:25:49;;;;;;;8.40;1.30;;;;;;;28.55;39.51;100539.53;4987363;28;20425;-72
2022/07/16 06:28:15;;;;;;;2.55;0.50;;;;;;;28.53;39.45;100536.31;4988546;28;20042;-72
2022/07/16 06:30:40;;;;;;;4.97;0.57;;;;;;;28.52;38.95;100534.69;4988897;28;20398;-72
2022/07/16 06:33:06;;;;;;;1.58;0.50;;;;;;;28.50;39.26;100536.00;4988317;28;20069;-71
2022/07/16 06:35:31;;;;;;;0.95;0.40;;;;;;;28.49;39.04;100545.94;4988092;28;20070;-71
2022/07/16 06:37:57;;;;;;;4.45;0.57;;;;;;;28.51;39.44;100537.63;4986283;28;20057;-71
2022/07/16 06:40:22;;;;;;;4.53;0.75;;;;;;;28.49;39.07;100534.41;4987170;28;20113;-71
2022/07/16 06:42:47;;;;;;;3.42;0.40;;;;;;;28.47;39.32;100531.97;4987219;28;20030;-71
2022/07/16 06:45:13;;;;;;;1.65;0.50;;;;;;;28.48;39.12;100533.59;4986515;28;20066;-70
2022/07/16 06:47:39;;;;;;;5.82;0.80;;;;;;;28.49;38.71;100531.72;4987228;28;20089;-70
2022/07/16 06:50:05;;;;;;;1.33;0.60;;;;;;;28.50;39.19;100528.78;4983062;28;20026;-71
2022/07/16 06:52:30;;;;;;;3.83;0.60;;;;;;;28.51;38.84;100534.94;4987124;28;20034;-70
2022/07/16 06:54:55;;;;;;;3.35;0.63;;;;;;;28.51;38.70;100533.06;4986206;28;20513;-70
2022/07/16 06:57:22;;;;;;;2.17;0.68;;;;;;;28.51;38.54;100532.25;4985533;28;20065;-75
2022/07/16 06:59:47;;;;;;;2.47;0.80;;;;;;;28.50;38.50;100525.28;4984926;28;20474;-74
2022/07/16 07:02:13;;;;;;;1.27;0.40;;;;;;;28.49;38.79;100531.72;4985860;28;20054;-74
2022/07/16 07:04:39;;;;;;;5.22;0.80;;;;;;;28.46;38.42;100524.19;4986938;28;20042;-74
2022/07/16 07:07:05;;;;;;;2.20;0.40;;;;;;;28.46;38.67;100527.69;4988793;28;20058;-74
2022/07/16 07:09:30;;;;;;;1.13;0.57;;;;;;;28.48;38.66;100527.44;4988720;28;20018;-73
2022/07/16 07:11:56;;;;;;;2.72;0.60;;;;;;;28.48;39.28;100522.06;4988625;28;20495;-74
2022/07/16 07:14:21;;;;;;;1.55;0.50;;;;;;;28.47;38.69;100529.31;4986208;28;20031;-74
2022/07/16 07:16:46;;;;;;;5.53;0.75;;;;;;;28.47;38.64;100518.59;4986533;28;20042;-74
2022/07/16 07:19:12;;;;;;;3.90;0.88;;;;;;;28.48;38.88;100519.38;4988410;28;20027;-74
2022/07/16 07:21:37;;;;;;;2.03;0.82;;;;;;;28.49;38.61;100518.31;4985890;28;22121;-75
2022/07/16 07:24:03;;;;;;;2.28;0.60;;;;;;;28.49;38.93;100521.81;4982701;28;20118;-74
2022/07/16 07:26:28;;;;;;;1.70;0.40;;;;;;;28.51;38.94;100524.22;4987271;28;20045;-75
2022/07/16 07:28:54;;;;;;;2.15;0.40;;;;;;;28.52;39.43;100523.16;4983682;28;20033;-73
2022/07/16 07:31:19;;;;;;;1.58;0.60;;;;;;;28.54;39.40;100529.88;4986327;28;20035;-73
2022/07/16 07:33:45;;;;;;;1.52;0.50;;;;;;;28.55;39.60;100528.81;4985435;28;20034;-75
2022/07/16 07:36:10;;;;;;;0.75;0.32;;;;;;;28.57;39.57;100524.00;4988026;28;20442;-73
2022/07/16 07:38:36;;;;;;;0.88;0.43;;;;;;;28.57;40.08;100520.50;4986150;28;20796;-73
2022/07/16 07:41:02;;;;;;;1.80;0.47;;;;;;;28.55;39.98;100528.00;4988588;28;20031;-73
2022/07/16 07:43:28;;;;;;;1.05;0.45;;;;;;;28.58;39.62;100536.31;4989820;28;20112;-74
2022/07/16 07:45:53;;;;;;;2.75;0.65;;;;;;;28.58;39.22;100525.59;4988515;28;20518;-74
2022/07/16 07:48:19;;;;;;;1.33;0.50;;;;;;;28.58;39.12;100522.91;4990979;28;20153;-74
2022/07/16 07:50:44;;;;;;;2.05;0.70;;;;;;;28.56;39.04;100525.06;4990850;28;20034;-74
2022/07/16 07:53:10;;;;;;;5.22;0.70;;;;;;;28.54;38.97;100521.84;4990871;28;20085;-75
2022/07/16 07:55:36;;;;;;;4.07;0.70;;;;;;;28.53;38.98;100520.22;4990811;28;20497;-75
2022/07/16 07:58:02;;;;;;;3.85;0.77;;;;;;;28.54;38.85;100515.66;4991804;28;20022;-74
2022/07/16 08:00:28;;;;;;;3.28;0.88;;;;;;;28.54;39.16;100521.03;4990979;28;20041;-74
2022/07/16 08:02:54;;;;;;;1.55;0.70;;;;;;;28.52;39.19;100520.47;4991608;28;20026;-74
2022/07/16 08:05:20;;;;;;;1.50;0.65;;;;;;;28.51;39.05;100519.66;4991526;28;20027;-74
2022/07/16 08:07:45;;;;;;;2.33;0.63;;;;;;;28.50;39.12;100523.41;4991557;28;20448;-74
2022/07/16 08:10:11;;;;;;;2.40;0.70;;;;;;;28.49;39.34;100524.50;4990332;28;20030;-75
2022/07/16 08:12:38;;;;;;;2.45;0.63;;;;;;;28.50;38.84;100531.47;4990301;28;20030;-74
2022/07/16 08:15:04;;;;;;;3.15;0.88;;;;;;;28.51;39.01;100526.91;4990646;28;20077;-75
2022/07/16 08:17:30;;;;;;;4.90;0.60;;;;;;;28.50;39.40;100526.09;4991303;28;20113;-75
2022/07/16 08:19:55;;;;;;;2.63;0.70;;;;;;;28.50;39.37;100528.78;4991181;28;20559;-75
2022/07/16 08:22:21;;;;;;;1.33;0.52;;;;;;;28.49;39.53;100532.53;4988197;28;20130;-75
2022/07/16 08:27:31;;;;;;;3.95;0.70;;;;;;;28.50;39.15;100536.00;4991314;28;20036;-75
2022/07/16 08:29:56;;;;;;;2.55;0.50;;;;;;;28.50;39.52;100530.66;4991158;28;20026;-75
2022/07/16 08:32:22;;;;;;;1.88;0.63;;;;;;;28.50;39.32;100531.47;4987869;28;20049;-74
2022/07/16 08:34:47;;;;;;;1.35;0.60;;;;;;;28.52;39.53;100532.00;4989057;28;20368;-75
2022/07/16 08:37:13;;;;;;;3.65;0.77;;;;;;;28.53;39.44;100538.97;4990764;28;20502;-75
2022/07/16 08:39:43;;;;;;;4.95;1.05;;;;;;;28.54;39.63;100540.59;4991087;28;20057;-75
2022/07/16 08:42:12;;;;;;;1.70;0.60;;;;;;;28.54;39.86;100531.75;4990914;28;20033;-75
2022/07/16 08:44:40;;;;;;;1.98;0.60;;;;;;;28.56;39.59;100535.78;4989662;28;20038;-74
2022/07/16 08:47:07;;;;;;;2.88;0.60;;;;;;;28.55;39.83;100536.03;4989957;28;20041;-74
2022/07/16 08:49:33;;;;;;;2.05;0.50;;;;;;;28.56;39.69;100535.78;4990529;28;20081;-75
2022/07/16 08:52:00;;;;;;;2.63;0.50;;;;;;;28.58;39.49;100541.69;4990052;28;20031;-74
2022/07/16 08:54:29;;;;;;;3.45;0.50;;;;;;;28.60;39.56;100541.41;4990901;28;20026;-74
2022/07/16 08:56:54;;;;;;;2.03;0.70;;;;;;;28.60;39.71;100534.19;4988408;28;20058;-75
2022/07/16 08:59:21;;;;;;;2.00;0.60;;;;;;;28.61;39.48;100530.44;4990611;28;20030;-74
2022/07/16 09:01:46;;;;;;;3.17;0.50;;;;;;;28.65;39.86;100533.41;4989675;28;20034;-73
2022/07/16 09:04:12;;;;;;;1.02;0.52;;;;;;;28.67;39.97;100537.44;4990400;28;20030;-74
2022/07/16 09:06:37;;;;;;;2.53;0.60;;;;;;;28.66;39.80;100530.47;4990412;28;20336;-74
2022/07/16 09:09:03;;;;;;;3.10;0.82;;;;;;;28.65;39.95;100530.72;4988929;28;20125;-74
2022/07/16 09:11:32;;;;;;;1.90;0.70;;;;;;;28.66;39.57;100521.63;4990139;28;20027;-74
2022/07/16 09:14:04;;;;;;;2.60;0.52;;;;;;;28.64;40.01;100516.50;4990313;28;20037;-74
2022/07/16 09:16:36;;;;;;;1.63;0.82;;;;;;;28.65;39.47;100515.44;4989012;28;20044;-73
2022/07/16 09:19:10;;;;;;;2.03;0.63;;;;;;;28.64;39.45;100521.06;4990197;28;20126;-74
2022/07/16 09:21:37;;;;;;;3.05;0.88;;;;;;;28.64;39.51;100524.56;4990147;28;20497;-74
2022/07/16 09:24:04;;;;;;;1.85;0.70;;;;;;;28.66;39.42;100518.94;4990146;28;20038;-74
2022/07/16 09:26:29;;;;;;;4.07;0.82;;;;;;;28.68;39.86;100516.81;4987579;28;20394;-74
2022/07/16 09:29:00;;;;;;;2.53;0.98;;;;;;;28.69;39.66;100532.63;4989832;28;20034;-74
2022/07/16 09:31:46;;;;;;;1.83;0.57;;;;;;;28.65;39.38;100518.13;4988690;28;20148;-74
2022/07/16 09:34:13;;;;;;;2.13;0.60;;;;;;;28.66;39.88;100525.09;4985229;28;20082;-74
2022/07/16 09:37:01;;;;;;;2.28;0.60;;;;;;;28.66;39.67;100527.78;4988902;28;20256;-74
2022/07/16 09:39:28;;;;;;;1.30;0.80;;;;;;;28.66;39.74;100524.28;4989216;28;20125;-74
2022/07/16 09:41:54;;;;;;;1.15;0.50;;;;;;;28.68;39.71;100525.66;4989598;28;20030;-74
2022/07/16 09:44:26;;;;;;;2.08;0.60;;;;;;;28.68;40.11;100530.19;4988342;28;20026;-74
2022/07/16 09:47:00;;;;;;;2.08;0.70;;;;;;;28.68;40.05;100522.97;4970209;28;20498;-74
2022/07/16 09:49:27;;;;;;;2.45;0.65;;;;;;;28.70;39.59;100523.50;4970205;28;20031;-74
2022/07/16 09:51:53;;;;;;;1.58;0.65;;;;;;;28.69;39.89;100519.22;4970075;28;20457;-74
2022/07/16 09:54:44;;;;;;;2.58;0.68;;;;;;;28.68;40.41;100517.59;4970109;28;20042;-74
2022/07/16 09:57:18;;;;;;;3.22;0.60;;;;;;;28.69;40.26;100511.19;4986038;28;20050;-74
2022/07/16 09:59:46;;;;;;;3.83;0.77;;;;;;;28.70;40.08;100520.84;4988517;28;20123;-74
2022/07/16 10:02:12;;;;;;;1.20;0.70;;;;;;;28.70;40.27;100510.09;4989197;28;20418;-74
2022/07/16 10:04:38;;;;;;;1.63;0.68;;;;;;;28.73;40.23;100514.13;4989030;28;20045;-74
2022/07/16 10:07:05;;;;;;;2.40;0.70;;;;;;;28.74;40.07;100513.88;4985630;28;20035;-74
2022/07/16 10:09:30;;;;;;;2.58;0.68;;;;;;;28.77;40.39;100503.69;4987133;28;20041;-74
2022/07/16 10:12:01;;;;;;;2.38;0.70;;;;;;;28.77;40.01;100506.38;4989110;28;20026;-74
2022/07/16 10:14:27;;;;;;;1.00;0.65;;;;;;;28.77;40.01;100509.06;4989249;28;20081;-74
2022/07/16 10:16:59;;;;;;;4.03;1.02;;;;;;;28.77;40.19;100504.50;4987027;28;20556;-74
2022/07/16 10:19:33;;;;;;;2.45;0.95;;;;;;;28.79;39.84;100506.91;4988972;28;20084;-75
2022/07/16 10:22:29;;;;;;;4.75;0.80;;;;;;;28.79;39.98;100506.91;4989013;28;20038;-74
2022/07/16 10:24:56;;;;;;;1.55;0.80;;;;;;;28.83;40.30;100505.34;4976342;28;20034;-74
2022/07/16 10:27:32;;;;;;;1.95;0.77;;;;;;;28.88;40.17;100510.69;4970099;28;20026;-74
2022/07/16 10:30:16;;;;;;;2.45;0.80;;;;;;;28.88;40.40;100510.69;4988081;28;20034;-76
2022/07/16 10:33:00;;;;;;;2.80;0.73;;;;;;;28.85;40.10;100512.03;4969350;28;20062;-74
2022/07/16 10:36:04;;;;;;;1.77;0.73;;;;;;;28.85;40.04;100505.88;4970775;28;20037;-74
2022/07/16 10:38:30;;;;;;;2.25;0.75;;;;;;;28.85;40.46;100512.03;4957909;28;20043;-74
2022/07/16 10:41:20;;;;;;;1.70;0.80;;;;;;;28.86;40.37;100513.66;4969437;28;20034;-75
2022/07/16 10:44:08;;;;;;;2.42;0.90;;;;;;;28.88;40.52;100510.69;4969335;28;20046;-74
2022/07/16 10:46:33;;;;;;;2.30;0.80;;;;;;;28.94;40.08;100517.69;4979405;28;20041;-74
2022/07/16 10:48:58;;;;;;;4.47;0.88;;;;;;;28.95;40.43;100504.03;4988875;28;20392;-74
2022/07/16 10:51:25;;;;;;;3.25;0.85;;;;;;;28.94;40.17;100517.69;4988510;28;20062;-74
2022/07/16 10:53:57;;;;;;;2.50;0.75;;;;;;;28.91;40.09;100518.22;4988949;28;20019;-74
2022/07/16 10:56:45;;;;;;;1.60;0.65;;;;;;;28.90;40.38;100514.72;4986992;28;20048;-75
2022/07/16 10:59:15;;;;;;;1.98;0.73;;;;;;;28.95;39.67;100511.25;4988451;28;20185;-74
2022/07/16 11:01:43;;;;;;;2.38;0.70;;;;;;;28.96;39.91;100502.16;4987651;28;20045;-74
2022/07/16 11:04:10;;;;;;;3.95;1.00;;;;;;;28.94;39.76;100501.59;4988332;28;20031;-74
2022/07/16 11:06:37;;;;;;;2.58;0.90;;;;;;;28.91;40.30;100505.63;4986748;28;20057;-74
2022/07/16 11:09:07;;;;;;;2.00;0.77;;;;;;;28.92;40.34;100504.56;4988278;28;20037;-74
2022/07/16 11:11:34;;;;;;;2.88;0.70;;;;;;;28.94;40.19;100509.66;4988720;28;20097;-74
2022/07/16 11:14:01;;;;;;;2.75;1.00;;;;;;;28.93;39.86;100505.34;4988288;28;20394;-75
2022/07/16 11:16:27;;;;;;;1.67;0.88;;;;;;;28.94;39.76;100498.91;4990218;28;20591;-74
2022/07/16 11:18:53;;;;;;;1.23;0.82;;;;;;;28.95;39.91;100513.94;4992335;28;20190;-74
2022/07/16 11:21:18;;;;;;;1.55;0.90;;;;;;;28.99;39.83;100505.09;4992387;28;20033;-75
2022/07/16 11:23:49;;;;;;;3.17;0.70;;;;;;;28.98;40.35;100508.84;4992014;28;20505;-74
2022/07/16 11:26:14;;;;;;;2.17;0.93;;;;;;;28.98;40.12;100500.81;4990207;28;20029;-74
2022/07/16 11:28:50;;;;;;;1.33;0.95;;;;;;;29.00;40.36;100501.34;4991043;28;20030;-74
2022/07/16 11:31:32;;;;;;;1.67;0.85;;;;;;;29.01;40.08;100500.28;4990893;28;20736;-74
2022/07/16 11:34:03;;;;;;;2.08;0.93;;;;;;;29.05;40.07;100500.56;4992144;28;20031;-74